sensor_id;sensor_type;location;lat;lon;timestamp;P1;durP1;ratioP1;P2;durP2;ratioP2
19877;SDS011;10101;52.204;9.910;2022-11-20T00:00:15;19.03;;;10.90;;
19877;SDS011;10101;52.204;9.910;2022-11-20T00:02:42;16.20;;;9.43;;
19877;SDS011;10101;52.204;9.910;2022-11-20T00:05:09;16.77;;;10.20;;
19877;SDS011;10101;52.204;9.910;2022-11-20T00:07:35;20.33;;;10.97;;
19877;SDS011;10101;52.204;9.910;2022-11-20T00:10:02;17.33;;;10.57;;
19877;SDS011;10101;52.204;9.910;2022-11-20T00:12:31;25.53;;;11.37;;
19877;SDS011;10101;52.204;9.910;2022-11-20T00:14:57;20.87;;;10.53;;
19877;SDS011;10101;52.204;9.910;2022-11-20T00:17:24;18.23;;;10.53;;
19877;SDS011;10101;52.204;9.910;2022-11-20T00:19:51;18.47;;;10.33;;
19877;SDS011;10101;52.204;9.910;2022-11-20T00:22:17;17.43;;;9.83;;
19877;SDS011;10101;52.204;9.910;2022-11-20T00:24:44;17.53;;;9.80;;
19877;SDS011;10101;52.204;9.910;2022-11-20T00:27:11;18.97;;;10.10;;
19877;SDS011;10101;52.204;9.910;2022-11-20T00:29:39;19.97;;;10.40;;
19877;SDS011;10101;52.204;9.910;2022-11-20T00:32:06;18.50;;;10.13;;
19877;SDS011;10101;52.204;9.910;2022-11-20T00:34:33;19.23;;;9.67;;
19877;SDS011;10101;52.204;9.910;2022-11-20T00:36:59;17.80;;;9.10;;
19877;SDS011;10101;52.204;9.910;2022-11-20T00:39:26;19.17;;;8.63;;
19877;SDS011;10101;52.204;9.910;2022-11-20T00:41:53;17.33;;;9.23;;
19877;SDS011;10101;52.204;9.910;2022-11-20T00:44:19;17.77;;;9.63;;
19877;SDS011;10101;52.204;9.910;2022-11-20T00:46:47;17.13;;;8.87;;
19877;SDS011;10101;52.204;9.910;2022-11-20T00:49:14;17.60;;;9.00;;
19877;SDS011;10101;52.204;9.910;2022-11-20T00:51:41;15.97;;;8.63;;
19877;SDS011;10101;52.204;9.910;2022-11-20T00:54:07;18.57;;;9.77;;
19877;SDS011;10101;52.204;9.910;2022-11-20T00:56:34;17.90;;;9.43;;
19877;SDS011;10101;52.204;9.910;2022-11-20T00:59:01;15.50;;;9.00;;
19877;SDS011;10101;52.204;9.910;2022-11-20T01:01:28;16.60;;;9.20;;
19877;SDS011;10101;52.204;9.910;2022-11-20T01:03:57;17.87;;;9.47;;
19877;SDS011;10101;52.204;9.910;2022-11-20T01:06:26;14.97;;;9.10;;
19877;SDS011;10101;52.204;9.910;2022-11-20T01:08:54;16.07;;;8.77;;
19877;SDS011;10101;52.204;9.910;2022-11-20T01:11:23;17.63;;;8.57;;
19877;SDS011;10101;52.204;9.910;2022-11-20T01:13:51;16.00;;;8.60;;
19877;SDS011;10101;52.204;9.910;2022-11-20T01:16:20;14.97;;;8.63;;
19877;SDS011;10101;52.204;9.910;2022-11-20T01:18:48;13.87;;;7.83;;
19877;SDS011;10101;52.204;9.910;2022-11-20T01:21:18;16.20;;;8.53;;
19877;SDS011;10101;52.204;9.910;2022-11-20T01:23:47;16.40;;;8.60;;
19877;SDS011;10101;52.204;9.910;2022-11-20T01:26:15;15.23;;;7.97;;
19877;SDS011;10101;52.204;9.910;2022-11-20T01:28:43;16.90;;;8.60;;
19877;SDS011;10101;52.204;9.910;2022-11-20T01:31:11;14.70;;;8.57;;
19877;SDS011;10101;52.204;9.910;2022-11-20T01:33:39;14.60;;;8.20;;
19877;SDS011;10101;52.204;9.910;2022-11-20T01:36:07;16.60;;;8.00;;
19877;SDS011;10101;52.204;9.910;2022-11-20T01:38:36;17.10;;;8.07;;
19877;SDS011;10101;52.204;9.910;2022-11-20T01:41:04;17.10;;;7.80;;
19877;SDS011;10101;52.204;9.910;2022-11-20T01:43:31;14.03;;;7.30;;
19877;SDS011;10101;52.204;9.910;2022-11-20T01:46:02;12.40;;;7.93;;
19877;SDS011;10101;52.204;9.910;2022-11-20T01:48:41;13.93;;;8.03;;
19877;SDS011;10101;52.204;9.910;2022-11-20T01:51:12;12.53;;;7.03;;
19877;SDS011;10101;52.204;9.910;2022-11-20T01:53:46;13.70;;;6.57;;
19877;SDS011;10101;52.204;9.910;2022-11-20T01:56:14;13.20;;;6.73;;
19877;SDS011;10101;52.204;9.910;2022-11-20T01:58:42;12.30;;;6.70;;
19877;SDS011;10101;52.204;9.910;2022-11-20T02:01:13;11.87;;;6.70;;
19877;SDS011;10101;52.204;9.910;2022-11-20T02:03:41;11.17;;;6.33;;
19877;SDS011;10101;52.204;9.910;2022-11-20T02:06:10;11.13;;;6.50;;
19877;SDS011;10101;52.204;9.910;2022-11-20T02:08:41;10.73;;;6.27;;
19877;SDS011;10101;52.204;9.910;2022-11-20T02:11:09;12.47;;;6.70;;
19877;SDS011;10101;52.204;9.910;2022-11-20T02:13:37;12.27;;;6.70;;
19877;SDS011;10101;52.204;9.910;2022-11-20T02:16:13;12.27;;;5.97;;
19877;SDS011;10101;52.204;9.910;2022-11-20T02:18:45;11.93;;;6.67;;
19877;SDS011;10101;52.204;9.910;2022-11-20T02:21:14;12.13;;;5.87;;
19877;SDS011;10101;52.204;9.910;2022-11-20T02:24:02;11.20;;;6.83;;
19877;SDS011;10101;52.204;9.910;2022-11-20T02:26:33;10.77;;;6.17;;
19877;SDS011;10101;52.204;9.910;2022-11-20T02:29:04;10.73;;;6.03;;
19877;SDS011;10101;52.204;9.910;2022-11-20T02:31:34;10.53;;;6.13;;
19877;SDS011;10101;52.204;9.910;2022-11-20T02:34:03;11.70;;;6.07;;
19877;SDS011;10101;52.204;9.910;2022-11-20T02:36:30;10.67;;;6.03;;
19877;SDS011;10101;52.204;9.910;2022-11-20T02:38:58;10.63;;;6.30;;
19877;SDS011;10101;52.204;9.910;2022-11-20T02:41:31;10.77;;;5.37;;
19877;SDS011;10101;52.204;9.910;2022-11-20T02:43:59;11.20;;;6.37;;
19877;SDS011;10101;52.204;9.910;2022-11-20T02:46:26;11.23;;;6.20;;
19877;SDS011;10101;52.204;9.910;2022-11-20T02:48:53;11.50;;;6.87;;
19877;SDS011;10101;52.204;9.910;2022-11-20T02:51:19;10.53;;;6.07;;
19877;SDS011;10101;52.204;9.910;2022-11-20T02:53:46;11.57;;;6.10;;
19877;SDS011;10101;52.204;9.910;2022-11-20T02:56:13;11.50;;;6.23;;
19877;SDS011;10101;52.204;9.910;2022-11-20T02:58:41;11.83;;;6.07;;
19877;SDS011;10101;52.204;9.910;2022-11-20T03:01:08;11.50;;;5.90;;
19877;SDS011;10101;52.204;9.910;2022-11-20T03:03:35;10.47;;;5.77;;
19877;SDS011;10101;52.204;9.910;2022-11-20T03:06:02;11.27;;;5.93;;
19877;SDS011;10101;52.204;9.910;2022-11-20T03:08:29;12.27;;;5.87;;
19877;SDS011;10101;52.204;9.910;2022-11-20T03:10:56;11.00;;;6.03;;
19877;SDS011;10101;52.204;9.910;2022-11-20T03:13:22;10.53;;;6.37;;
19877;SDS011;10101;52.204;9.910;2022-11-20T03:15:52;10.23;;;6.33;;
19877;SDS011;10101;52.204;9.910;2022-11-20T03:18:19;9.37;;;5.43;;
19877;SDS011;10101;52.204;9.910;2022-11-20T03:20:45;10.97;;;5.60;;
19877;SDS011;10101;52.204;9.910;2022-11-20T03:23:12;11.87;;;6.20;;
19877;SDS011;10101;52.204;9.910;2022-11-20T03:25:39;11.07;;;6.37;;
19877;SDS011;10101;52.204;9.910;2022-11-20T03:28:06;11.73;;;6.10;;
19877;SDS011;10101;52.204;9.910;2022-11-20T03:30:33;9.83;;;5.20;;
19877;SDS011;10101;52.204;9.910;2022-11-20T03:33:02;11.43;;;5.83;;
19877;SDS011;10101;52.204;9.910;2022-11-20T03:35:29;11.03;;;6.20;;
19877;SDS011;10101;52.204;9.910;2022-11-20T03:37:56;8.40;;;5.50;;
19877;SDS011;10101;52.204;9.910;2022-11-20T03:40:23;7.50;;;4.90;;
19877;SDS011;10101;52.204;9.910;2022-11-20T03:42:50;8.87;;;5.27;;
19877;SDS011;10101;52.204;9.910;2022-11-20T03:45:17;10.87;;;5.67;;
19877;SDS011;10101;52.204;9.910;2022-11-20T03:47:45;8.83;;;5.03;;
19877;SDS011;10101;52.204;9.910;2022-11-20T03:50:13;10.27;;;5.40;;
19877;SDS011;10101;52.204;9.910;2022-11-20T03:52:40;9.37;;;5.73;;
19877;SDS011;10101;52.204;9.910;2022-11-20T03:55:07;8.03;;;5.30;;
19877;SDS011;10101;52.204;9.910;2022-11-20T03:57:34;9.83;;;5.23;;
19877;SDS011;10101;52.204;9.910;2022-11-20T04:00:01;8.33;;;4.97;;
19877;SDS011;10101;52.204;9.910;2022-11-20T04:02:27;8.97;;;4.87;;
19877;SDS011;10101;52.204;9.910;2022-11-20T04:04:54;10.90;;;5.60;;
19877;SDS011;10101;52.204;9.910;2022-11-20T04:07:22;9.13;;;5.40;;
19877;SDS011;10101;52.204;9.910;2022-11-20T04:09:49;7.93;;;5.30;;
19877;SDS011;10101;52.204;9.910;2022-11-20T04:12:16;9.03;;;5.27;;
19877;SDS011;10101;52.204;9.910;2022-11-20T04:14:42;9.10;;;5.63;;
19877;SDS011;10101;52.204;9.910;2022-11-20T04:17:09;9.43;;;5.30;;
19877;SDS011;10101;52.204;9.910;2022-11-20T04:19:36;8.17;;;5.20;;
19877;SDS011;10101;52.204;9.910;2022-11-20T04:22:02;9.13;;;5.43;;
19877;SDS011;10101;52.204;9.910;2022-11-20T04:24:30;11.77;;;5.63;;
19877;SDS011;10101;52.204;9.910;2022-11-20T04:26:57;9.60;;;4.90;;
19877;SDS011;10101;52.204;9.910;2022-11-20T04:29:24;9.40;;;4.60;;
19877;SDS011;10101;52.204;9.910;2022-11-20T04:31:51;10.27;;;5.43;;
19877;SDS011;10101;52.204;9.910;2022-11-20T04:34:17;7.80;;;5.20;;
19877;SDS011;10101;52.204;9.910;2022-11-20T04:36:44;9.60;;;5.90;;
19877;SDS011;10101;52.204;9.910;2022-11-20T04:39:11;8.73;;;4.87;;
19877;SDS011;10101;52.204;9.910;2022-11-20T04:41:41;8.90;;;5.30;;
19877;SDS011;10101;52.204;9.910;2022-11-20T04:44:08;9.97;;;4.83;;
19877;SDS011;10101;52.204;9.910;2022-11-20T04:46:35;6.90;;;4.60;;
19877;SDS011;10101;52.204;9.910;2022-11-20T04:49:04;8.07;;;5.63;;
19877;SDS011;10101;52.204;9.910;2022-11-20T04:51:31;7.13;;;5.10;;
19877;SDS011;10101;52.204;9.910;2022-11-20T04:53:58;8.00;;;4.80;;
19877;SDS011;10101;52.204;9.910;2022-11-20T04:56:25;7.70;;;4.90;;
19877;SDS011;10101;52.204;9.910;2022-11-20T04:58:53;8.23;;;5.50;;
19877;SDS011;10101;52.204;9.910;2022-11-20T05:01:20;9.20;;;5.30;;
19877;SDS011;10101;52.204;9.910;2022-11-20T05:03:49;10.73;;;5.33;;
19877;SDS011;10101;52.204;9.910;2022-11-20T05:06:16;8.47;;;5.00;;
19877;SDS011;10101;52.204;9.910;2022-11-20T05:08:44;8.67;;;5.00;;
19877;SDS011;10101;52.204;9.910;2022-11-20T05:11:12;9.83;;;5.13;;
19877;SDS011;10101;52.204;9.910;2022-11-20T05:13:40;8.03;;;5.00;;
19877;SDS011;10101;52.204;9.910;2022-11-20T05:16:09;9.30;;;5.10;;
19877;SDS011;10101;52.204;9.910;2022-11-20T05:18:38;8.40;;;4.60;;
19877;SDS011;10101;52.204;9.910;2022-11-20T05:21:05;7.30;;;4.67;;
19877;SDS011;10101;52.204;9.910;2022-11-20T05:23:33;10.37;;;5.30;;
19877;SDS011;10101;52.204;9.910;2022-11-20T05:26:00;8.03;;;5.27;;
19877;SDS011;10101;52.204;9.910;2022-11-20T05:28:28;7.40;;;4.80;;
19877;SDS011;10101;52.204;9.910;2022-11-20T05:31:03;9.67;;;5.10;;
19877;SDS011;10101;52.204;9.910;2022-11-20T05:33:32;15.90;;;4.87;;
19877;SDS011;10101;52.204;9.910;2022-11-20T05:35:59;8.70;;;5.13;;
19877;SDS011;10101;52.204;9.910;2022-11-20T05:38:25;6.93;;;4.70;;
19877;SDS011;10101;52.204;9.910;2022-11-20T05:40:52;6.90;;;4.53;;
19877;SDS011;10101;52.204;9.910;2022-11-20T05:43:19;8.50;;;4.80;;
19877;SDS011;10101;52.204;9.910;2022-11-20T05:45:51;7.27;;;4.43;;
19877;SDS011;10101;52.204;9.910;2022-11-20T05:48:18;8.67;;;4.73;;
19877;SDS011;10101;52.204;9.910;2022-11-20T05:50:47;6.83;;;4.40;;
19877;SDS011;10101;52.204;9.910;2022-11-20T05:53:13;8.13;;;4.53;;
19877;SDS011;10101;52.204;9.910;2022-11-20T05:55:40;9.37;;;5.40;;
19877;SDS011;10101;52.204;9.910;2022-11-20T05:58:07;8.80;;;5.10;;
19877;SDS011;10101;52.204;9.910;2022-11-20T06:00:34;8.50;;;5.40;;
19877;SDS011;10101;52.204;9.910;2022-11-20T06:03:00;7.73;;;4.70;;
19877;SDS011;10101;52.204;9.910;2022-11-20T06:05:27;10.53;;;5.53;;
19877;SDS011;10101;52.204;9.910;2022-11-20T06:07:55;8.73;;;5.00;;
19877;SDS011;10101;52.204;9.910;2022-11-20T06:10:22;8.13;;;5.10;;
19877;SDS011;10101;52.204;9.910;2022-11-20T06:12:49;9.27;;;5.30;;
19877;SDS011;10101;52.204;9.910;2022-11-20T06:15:15;8.63;;;5.43;;
19877;SDS011;10101;52.204;9.910;2022-11-20T06:17:42;8.83;;;5.47;;
19877;SDS011;10101;52.204;9.910;2022-11-20T06:20:09;8.63;;;5.60;;
19877;SDS011;10101;52.204;9.910;2022-11-20T06:22:36;9.03;;;5.23;;
19877;SDS011;10101;52.204;9.910;2022-11-20T06:25:05;9.50;;;5.67;;
19877;SDS011;10101;52.204;9.910;2022-11-20T06:27:32;8.40;;;5.17;;
19877;SDS011;10101;52.204;9.910;2022-11-20T06:29:58;8.30;;;5.40;;
19877;SDS011;10101;52.204;9.910;2022-11-20T06:32:25;8.77;;;5.20;;
19877;SDS011;10101;52.204;9.910;2022-11-20T06:34:52;9.13;;;5.20;;
19877;SDS011;10101;52.204;9.910;2022-11-20T06:37:19;9.03;;;5.30;;
19877;SDS011;10101;52.204;9.910;2022-11-20T06:39:46;9.93;;;5.50;;
19877;SDS011;10101;52.204;9.910;2022-11-20T06:42:14;9.20;;;5.10;;
19877;SDS011;10101;52.204;9.910;2022-11-20T06:44:41;9.73;;;5.77;;
19877;SDS011;10101;52.204;9.910;2022-11-20T06:47:08;9.97;;;6.20;;
19877;SDS011;10101;52.204;9.910;2022-11-20T06:49:34;9.27;;;5.50;;
19877;SDS011;10101;52.204;9.910;2022-11-20T06:52:03;10.10;;;6.23;;
19877;SDS011;10101;52.204;9.910;2022-11-20T06:54:30;9.47;;;5.57;;
19877;SDS011;10101;52.204;9.910;2022-11-20T06:56:57;11.03;;;5.63;;
19877;SDS011;10101;52.204;9.910;2022-11-20T06:59:25;9.10;;;5.67;;
19877;SDS011;10101;52.204;9.910;2022-11-20T07:01:51;10.33;;;6.10;;
19877;SDS011;10101;52.204;9.910;2022-11-20T07:04:18;10.57;;;5.90;;
19877;SDS011;10101;52.204;9.910;2022-11-20T07:06:45;9.07;;;5.97;;
19877;SDS011;10101;52.204;9.910;2022-11-20T07:09:12;13.67;;;5.90;;
19877;SDS011;10101;52.204;9.910;2022-11-20T07:11:39;10.83;;;6.20;;
19877;SDS011;10101;52.204;9.910;2022-11-20T07:14:05;10.40;;;6.30;;
19877;SDS011;10101;52.204;9.910;2022-11-20T07:16:33;9.67;;;5.87;;
19877;SDS011;10101;52.204;9.910;2022-11-20T07:19:00;12.00;;;6.27;;
19877;SDS011;10101;52.204;9.910;2022-11-20T07:21:27;9.53;;;5.47;;
19877;SDS011;10101;52.204;9.910;2022-11-20T07:23:53;9.57;;;6.07;;
19877;SDS011;10101;52.204;9.910;2022-11-20T07:26:20;8.77;;;5.60;;
19877;SDS011;10101;52.204;9.910;2022-11-20T07:28:47;11.43;;;6.23;;
19877;SDS011;10101;52.204;9.910;2022-11-20T07:31:14;9.03;;;5.83;;
19877;SDS011;10101;52.204;9.910;2022-11-20T07:33:42;11.33;;;5.90;;
19877;SDS011;10101;52.204;9.910;2022-11-20T07:36:09;8.73;;;5.80;;
19877;SDS011;10101;52.204;9.910;2022-11-20T07:38:36;8.43;;;5.67;;
19877;SDS011;10101;52.204;9.910;2022-11-20T07:41:04;9.33;;;5.53;;
19877;SDS011;10101;52.204;9.910;2022-11-20T07:43:30;9.47;;;6.10;;
19877;SDS011;10101;52.204;9.910;2022-11-20T07:45:58;9.63;;;5.90;;
19877;SDS011;10101;52.204;9.910;2022-11-20T07:48:25;8.23;;;5.50;;
19877;SDS011;10101;52.204;9.910;2022-11-20T07:50:54;12.20;;;6.03;;
19877;SDS011;10101;52.204;9.910;2022-11-20T07:53:21;8.30;;;5.87;;
19877;SDS011;10101;52.204;9.910;2022-11-20T07:55:48;12.03;;;6.37;;
19877;SDS011;10101;52.204;9.910;2022-11-20T07:58:17;10.20;;;6.03;;
19877;SDS011;10101;52.204;9.910;2022-11-20T08:00:44;9.87;;;6.07;;
19877;SDS011;10101;52.204;9.910;2022-11-20T08:03:10;9.13;;;5.40;;
19877;SDS011;10101;52.204;9.910;2022-11-20T08:05:37;29.00;;;13.37;;
19877;SDS011;10101;52.204;9.910;2022-11-20T08:08:05;20.57;;;9.23;;
19877;SDS011;10101;52.204;9.910;2022-11-20T08:10:33;10.93;;;5.77;;
19877;SDS011;10101;52.204;9.910;2022-11-20T08:12:59;12.97;;;7.60;;
19877;SDS011;10101;52.204;9.910;2022-11-20T08:15:47;14.43;;;7.80;;
19877;SDS011;10101;52.204;9.910;2022-11-20T08:18:15;14.00;;;9.48;;
19877;SDS011;10101;52.204;9.910;2022-11-20T08:20:43;19.00;;;7.83;;
19877;SDS011;10101;52.204;9.910;2022-11-20T08:23:11;14.85;;;9.70;;
19877;SDS011;10101;52.204;9.910;2022-11-20T08:25:38;12.67;;;8.40;;
19877;SDS011;10101;52.204;9.910;2022-11-20T08:28:06;11.90;;;7.03;;
19877;SDS011;10101;52.204;9.910;2022-11-20T08:30:33;13.27;;;7.23;;
19877;SDS011;10101;52.204;9.910;2022-11-20T08:33:01;13.43;;;6.57;;
19877;SDS011;10101;52.204;9.910;2022-11-20T08:35:32;10.27;;;6.13;;
19877;SDS011;10101;52.204;9.910;2022-11-20T08:38:00;11.57;;;7.20;;
19877;SDS011;10101;52.204;9.910;2022-11-20T08:40:28;10.63;;;6.60;;
19877;SDS011;10101;52.204;9.910;2022-11-20T08:42:55;9.97;;;6.50;;
19877;SDS011;10101;52.204;9.910;2022-11-20T08:45:22;11.97;;;7.23;;
19877;SDS011;10101;52.204;9.910;2022-11-20T08:47:49;12.52;;;8.07;;
19877;SDS011;10101;52.204;9.910;2022-11-20T08:50:16;13.53;;;7.27;;
19877;SDS011;10101;52.204;9.910;2022-11-20T08:52:43;9.70;;;6.50;;
19877;SDS011;10101;52.204;9.910;2022-11-20T08:55:10;12.30;;;6.37;;
19877;SDS011;10101;52.204;9.910;2022-11-20T08:57:38;11.30;;;6.70;;
19877;SDS011;10101;52.204;9.910;2022-11-20T09:00:06;10.53;;;6.53;;
19877;SDS011;10101;52.204;9.910;2022-11-20T09:02:34;12.57;;;7.07;;
19877;SDS011;10101;52.204;9.910;2022-11-20T09:05:01;16.27;;;9.07;;
19877;SDS011;10101;52.204;9.910;2022-11-20T09:07:28;13.87;;;7.97;;
19877;SDS011;10101;52.204;9.910;2022-11-20T09:09:56;14.03;;;7.97;;
19877;SDS011;10101;52.204;9.910;2022-11-20T09:12:22;14.23;;;8.20;;
19877;SDS011;10101;52.204;9.910;2022-11-20T09:14:50;14.67;;;8.80;;
19877;SDS011;10101;52.204;9.910;2022-11-20T09:17:17;14.13;;;8.60;;
19877;SDS011;10101;52.204;9.910;2022-11-20T09:19:45;13.77;;;8.30;;
19877;SDS011;10101;52.204;9.910;2022-11-20T09:22:12;17.47;;;10.70;;
19877;SDS011;10101;52.204;9.910;2022-11-20T09:24:38;13.57;;;8.30;;
19877;SDS011;10101;52.204;9.910;2022-11-20T09:27:05;11.27;;;7.43;;
19877;SDS011;10101;52.204;9.910;2022-11-20T09:29:32;9.47;;;6.70;;
19877;SDS011;10101;52.204;9.910;2022-11-20T09:32:00;10.63;;;6.60;;
19877;SDS011;10101;52.204;9.910;2022-11-20T09:34:26;13.17;;;7.00;;
19877;SDS011;10101;52.204;9.910;2022-11-20T09:36:53;7.43;;;5.00;;
19877;SDS011;10101;52.204;9.910;2022-11-20T09:39:20;12.17;;;5.60;;
19877;SDS011;10101;52.204;9.910;2022-11-20T09:41:51;8.90;;;5.20;;
19877;SDS011;10101;52.204;9.910;2022-11-20T09:44:28;9.00;;;5.73;;
19877;SDS011;10101;52.204;9.910;2022-11-20T09:47:08;8.63;;;6.07;;
19877;SDS011;10101;52.204;9.910;2022-11-20T09:49:46;9.27;;;5.43;;
19877;SDS011;10101;52.204;9.910;2022-11-20T09:52:26;7.83;;;4.90;;
19877;SDS011;10101;52.204;9.910;2022-11-20T09:55:00;8.13;;;5.10;;
19877;SDS011;10101;52.204;9.910;2022-11-20T09:57:31;7.20;;;4.70;;
19877;SDS011;10101;52.204;9.910;2022-11-20T10:00:02;9.67;;;5.20;;
19877;SDS011;10101;52.204;9.910;2022-11-20T10:02:35;9.25;;;6.30;;
19877;SDS011;10101;52.204;9.910;2022-11-20T10:05:09;10.07;;;5.87;;
19877;SDS011;10101;52.204;9.910;2022-11-20T10:07:39;9.43;;;6.00;;
19877;SDS011;10101;52.204;9.910;2022-11-20T10:10:13;8.67;;;5.07;;
19877;SDS011;10101;52.204;9.910;2022-11-20T10:12:46;7.07;;;4.67;;
19877;SDS011;10101;52.204;9.910;2022-11-20T10:15:27;8.90;;;4.97;;
19877;SDS011;10101;52.204;9.910;2022-11-20T10:18:11;7.73;;;5.30;;
19877;SDS011;10101;52.204;9.910;2022-11-20T10:20:48;6.53;;;4.60;;
19877;SDS011;10101;52.204;9.910;2022-11-20T10:23:27;8.37;;;5.37;;
19877;SDS011;10101;52.204;9.910;2022-11-20T10:26:16;8.67;;;5.70;;
19877;SDS011;10101;52.204;9.910;2022-11-20T10:28:48;9.47;;;6.00;;
19877;SDS011;10101;52.204;9.910;2022-11-20T10:31:29;10.73;;;6.27;;
19877;SDS011;10101;52.204;9.910;2022-11-20T10:34:01;9.93;;;6.60;;
19877;SDS011;10101;52.204;9.910;2022-11-20T10:36:33;11.43;;;7.10;;
19877;SDS011;10101;52.204;9.910;2022-11-20T10:39:05;11.57;;;6.27;;
19877;SDS011;10101;52.204;9.910;2022-11-20T10:41:38;10.77;;;6.00;;
19877;SDS011;10101;52.204;9.910;2022-11-20T10:44:09;7.60;;;4.97;;
19877;SDS011;10101;52.204;9.910;2022-11-20T10:46:40;9.93;;;5.57;;
19877;SDS011;10101;52.204;9.910;2022-11-20T10:49:15;9.57;;;6.10;;
19877;SDS011;10101;52.204;9.910;2022-11-20T10:51:48;10.13;;;5.93;;
19877;SDS011;10101;52.204;9.910;2022-11-20T10:54:26;11.10;;;6.47;;
19877;SDS011;10101;52.204;9.910;2022-11-20T10:57:03;9.63;;;4.97;;
19877;SDS011;10101;52.204;9.910;2022-11-20T10:59:38;12.23;;;7.00;;
19877;SDS011;10101;52.204;9.910;2022-11-20T11:02:16;12.27;;;7.17;;
19877;SDS011;10101;52.204;9.910;2022-11-20T11:04:47;10.40;;;6.30;;
19877;SDS011;10101;52.204;9.910;2022-11-20T11:07:16;13.33;;;7.10;;
19877;SDS011;10101;52.204;9.910;2022-11-20T11:09:48;12.00;;;7.17;;
19877;SDS011;10101;52.204;9.910;2022-11-20T11:12:16;12.67;;;7.33;;
19877;SDS011;10101;52.204;9.910;2022-11-20T11:14:43;12.87;;;7.73;;
19877;SDS011;10101;52.204;9.910;2022-11-20T11:17:19;14.40;;;7.13;;
19877;SDS011;10101;52.204;9.910;2022-11-20T11:19:57;12.40;;;7.47;;
19877;SDS011;10101;52.204;9.910;2022-11-20T11:22:29;13.97;;;8.47;;
19877;SDS011;10101;52.204;9.910;2022-11-20T11:24:57;16.03;;;7.40;;
19877;SDS011;10101;52.204;9.910;2022-11-20T11:27:25;14.30;;;7.63;;
19877;SDS011;10101;52.204;9.910;2022-11-20T11:30:00;11.13;;;7.03;;
19877;SDS011;10101;52.204;9.910;2022-11-20T11:32:30;12.07;;;7.17;;
19877;SDS011;10101;52.204;9.910;2022-11-20T11:35:02;17.57;;;11.00;;
19877;SDS011;10101;52.204;9.910;2022-11-20T11:37:32;12.00;;;8.00;;
19877;SDS011;10101;52.204;9.910;2022-11-20T11:40:00;12.67;;;7.70;;
19877;SDS011;10101;52.204;9.910;2022-11-20T11:42:28;11.87;;;6.90;;
19877;SDS011;10101;52.204;9.910;2022-11-20T11:44:55;10.87;;;6.50;;
19877;SDS011;10101;52.204;9.910;2022-11-20T11:47:33;10.80;;;6.23;;
19877;SDS011;10101;52.204;9.910;2022-11-20T11:50:15;10.10;;;6.00;;
19877;SDS011;10101;52.204;9.910;2022-11-20T11:52:45;12.50;;;6.73;;
19877;SDS011;10101;52.204;9.910;2022-11-20T11:55:20;11.47;;;7.00;;
19877;SDS011;10101;52.204;9.910;2022-11-20T11:57:56;15.30;;;7.07;;
19877;SDS011;10101;52.204;9.910;2022-11-20T12:00:33;13.87;;;7.57;;
19877;SDS011;10101;52.204;9.910;2022-11-20T12:03:03;13.93;;;7.30;;
19877;SDS011;10101;52.204;9.910;2022-11-20T12:05:38;12.07;;;7.53;;
19877;SDS011;10101;52.204;9.910;2022-11-20T12:08:11;13.63;;;7.77;;
19877;SDS011;10101;52.204;9.910;2022-11-20T12:10:44;16.33;;;9.53;;
19877;SDS011;10101;52.204;9.910;2022-11-20T12:13:20;13.97;;;7.33;;
19877;SDS011;10101;52.204;9.910;2022-11-20T12:15:52;10.90;;;7.07;;
19877;SDS011;10101;52.204;9.910;2022-11-20T12:18:20;12.83;;;7.20;;
19877;SDS011;10101;52.204;9.910;2022-11-20T12:20:52;13.87;;;8.10;;
19877;SDS011;10101;52.204;9.910;2022-11-20T12:23:28;11.17;;;7.00;;
19877;SDS011;10101;52.204;9.910;2022-11-20T12:26:05;11.27;;;7.27;;
19877;SDS011;10101;52.204;9.910;2022-11-20T12:28:44;11.37;;;8.13;;
19877;SDS011;10101;52.204;9.910;2022-11-20T12:31:27;10.20;;;6.50;;
19877;SDS011;10101;52.204;9.910;2022-11-20T12:34:21;14.17;;;8.40;;
19877;SDS011;10101;52.204;9.910;2022-11-20T12:37:01;12.30;;;7.60;;
19877;SDS011;10101;52.204;9.910;2022-11-20T12:39:35;11.90;;;7.10;;
19877;SDS011;10101;52.204;9.910;2022-11-20T12:42:10;14.20;;;6.80;;
19877;SDS011;10101;52.204;9.910;2022-11-20T12:45:15;15.87;;;8.97;;
19877;SDS011;10101;52.204;9.910;2022-11-20T12:48:12;13.53;;;7.50;;
19877;SDS011;10101;52.204;9.910;2022-11-20T12:51:00;15.20;;;8.50;;
19877;SDS011;10101;52.204;9.910;2022-11-20T12:53:48;19.27;;;9.73;;
19877;SDS011;10101;52.204;9.910;2022-11-20T12:56:26;12.43;;;7.20;;
19877;SDS011;10101;52.204;9.910;2022-11-20T12:59:07;9.97;;;6.40;;
19877;SDS011;10101;52.204;9.910;2022-11-20T13:01:48;14.00;;;7.90;;
19877;SDS011;10101;52.204;9.910;2022-11-20T13:04:22;12.67;;;7.57;;
19877;SDS011;10101;52.204;9.910;2022-11-20T13:06:59;11.30;;;6.50;;
19877;SDS011;10101;52.204;9.910;2022-11-20T13:09:29;12.47;;;7.40;;
19877;SDS011;10101;52.204;9.910;2022-11-20T13:11:58;11.83;;;7.43;;
19877;SDS011;10101;52.204;9.910;2022-11-20T13:14:32;11.63;;;7.10;;
19877;SDS011;10101;52.204;9.910;2022-11-20T13:17:04;9.53;;;6.33;;
19877;SDS011;10101;52.204;9.910;2022-11-20T13:19:36;14.03;;;6.97;;
19877;SDS011;10101;52.204;9.910;2022-11-20T13:22:03;11.83;;;7.10;;
19877;SDS011;10101;52.204;9.910;2022-11-20T13:24:31;11.30;;;7.03;;
19877;SDS011;10101;52.204;9.910;2022-11-20T13:26:59;12.93;;;7.53;;
19877;SDS011;10101;52.204;9.910;2022-11-20T13:29:27;10.27;;;7.37;;
19877;SDS011;10101;52.204;9.910;2022-11-20T13:32:01;11.60;;;7.00;;
19877;SDS011;10101;52.204;9.910;2022-11-20T13:34:30;13.37;;;7.27;;
19877;SDS011;10101;52.204;9.910;2022-11-20T13:36:58;12.57;;;7.33;;
19877;SDS011;10101;52.204;9.910;2022-11-20T13:39:29;13.00;;;7.70;;
19877;SDS011;10101;52.204;9.910;2022-11-20T13:41:59;11.07;;;6.83;;
19877;SDS011;10101;52.204;9.910;2022-11-20T13:44:29;11.47;;;6.97;;
19877;SDS011;10101;52.204;9.910;2022-11-20T13:47:00;12.80;;;7.00;;
19877;SDS011;10101;52.204;9.910;2022-11-20T13:49:29;9.97;;;7.00;;
19877;SDS011;10101;52.204;9.910;2022-11-20T13:52:03;12.73;;;8.23;;
19877;SDS011;10101;52.204;9.910;2022-11-20T13:54:54;11.67;;;6.50;;
19877;SDS011;10101;52.204;9.910;2022-11-20T13:57:38;11.53;;;6.63;;
19877;SDS011;10101;52.204;9.910;2022-11-20T14:00:33;9.33;;;5.70;;
19877;SDS011;10101;52.204;9.910;2022-11-20T14:03:13;11.53;;;5.77;;
19877;SDS011;10101;52.204;9.910;2022-11-20T14:05:46;10.70;;;6.40;;
19877;SDS011;10101;52.204;9.910;2022-11-20T14:08:21;9.97;;;6.20;;
19877;SDS011;10101;52.204;9.910;2022-11-20T14:11:03;11.90;;;6.83;;
19877;SDS011;10101;52.204;9.910;2022-11-20T14:13:31;10.83;;;6.30;;
19877;SDS011;10101;52.204;9.910;2022-11-20T14:15:57;11.03;;;6.60;;
19877;SDS011;10101;52.204;9.910;2022-11-20T14:18:25;14.30;;;6.67;;
19877;SDS011;10101;52.204;9.910;2022-11-20T14:20:54;11.13;;;6.20;;
19877;SDS011;10101;52.204;9.910;2022-11-20T14:23:25;9.80;;;5.97;;
19877;SDS011;10101;52.204;9.910;2022-11-20T14:25:52;10.83;;;6.30;;
19877;SDS011;10101;52.204;9.910;2022-11-20T14:28:23;10.73;;;6.10;;
19877;SDS011;10101;52.204;9.910;2022-11-20T14:30:52;9.03;;;6.27;;
19877;SDS011;10101;52.204;9.910;2022-11-20T14:33:21;10.93;;;5.93;;
19877;SDS011;10101;52.204;9.910;2022-11-20T14:35:50;10.73;;;6.17;;
19877;SDS011;10101;52.204;9.910;2022-11-20T14:38:19;10.60;;;6.00;;
19877;SDS011;10101;52.204;9.910;2022-11-20T14:40:50;10.93;;;6.50;;
19877;SDS011;10101;52.204;9.910;2022-11-20T14:43:18;11.07;;;6.83;;
19877;SDS011;10101;52.204;9.910;2022-11-20T14:45:52;10.37;;;6.70;;
19877;SDS011;10101;52.204;9.910;2022-11-20T14:48:23;11.50;;;6.67;;
19877;SDS011;10101;52.204;9.910;2022-11-20T14:50:54;10.93;;;6.60;;
19877;SDS011;10101;52.204;9.910;2022-11-20T14:53:22;10.63;;;6.77;;